createdAt,value
2023-03-30T00:00:01.030Z,54.10
2023-03-30T00:05:05.584Z,53.70
2023-03-30T00:10:09.378Z,53.70
2023-03-30T00:15:12.639Z,53.80
2023-03-30T00:20:15.962Z,53.90
2023-03-30T00:25:18.315Z,53.90
2023-03-30T00:30:20.909Z,54.00
2023-03-30T00:35:23.156Z,54.20
2023-03-30T00:40:25.657Z,54.10
2023-03-30T00:45:34.017Z,54.20
2023-03-30T00:55:49.521Z,54.30
2023-03-30T01:00:52.256Z,54.30
2023-03-30T01:05:57.194Z,54.40
2023-03-30T01:11:02.640Z,54.40
2023-03-30T01:47:50.404Z,54.40
2023-03-30T02:03:40.406Z,54.20
2023-03-30T02:08:44.408Z,54.30
2023-03-30T02:13:47.596Z,54.20
2023-03-30T02:18:50.671Z,54.40
2023-03-30T02:23:55.952Z,54.40
2023-03-30T02:28:58.982Z,54.60
2023-03-30T02:50:26.458Z,54.50
2023-03-30T03:00:53.791Z,54.50
2023-03-30T03:06:03.237Z,55.10
2023-03-30T03:11:09.423Z,54.40
2023-03-30T03:16:12.383Z,54.50
2023-03-30T03:21:22.314Z,54.30
2023-03-30T03:26:24.830Z,54.20
2023-03-30T03:31:27.409Z,54.20
2023-03-30T03:36:30.689Z,54.30
2023-03-30T03:41:33.080Z,54.00
2023-03-30T03:46:35.605Z,54.00
2023-03-30T03:51:38.312Z,54.00
2023-03-30T03:56:40.553Z,54.20
2023-03-30T04:01:42.869Z,54.30
2023-03-30T04:06:45.500Z,54.30
2023-03-30T04:11:47.706Z,54.40
2023-03-30T04:17:00.298Z,54.30
2023-03-30T04:22:19.843Z,54.30
2023-03-30T04:27:43.945Z,54.40
2023-03-30T04:33:03.910Z,54.20
2023-03-30T04:38:23.492Z,54.10
2023-03-30T04:43:45.753Z,54.20
2023-03-30T04:49:00.881Z,54.30
2023-03-30T04:54:23.109Z,54.50
2023-03-30T04:59:45.635Z,54.60
2023-03-30T05:05:08.144Z,54.50
2023-03-30T05:10:30.624Z,55.00
2023-03-30T05:15:54.786Z,55.10
2023-03-30T05:21:16.921Z,55.30
2023-03-30T05:26:40.507Z,55.20
2023-03-30T05:32:00.741Z,55.70
2023-03-30T05:37:22.849Z,55.30
2023-03-30T05:42:45.537Z,55.80
2023-03-30T05:48:07.752Z,56.10
2023-03-30T05:53:19.979Z,56.20
2023-03-30T05:58:42.318Z,56.30
2023-03-30T06:03:52.142Z,56.60
2023-03-30T06:08:54.700Z,56.70
2023-03-30T06:13:59.751Z,56.70
2023-03-30T06:19:03.804Z,56.70
2023-03-30T06:24:06.795Z,57.50
2023-03-30T06:29:13.326Z,56.50
2023-03-30T06:34:18.208Z,56.00
2023-03-30T06:39:21.997Z,55.00
2023-03-30T06:44:25.008Z,56.60
2023-03-30T06:49:27.300Z,57.10
2023-03-30T06:54:49.448Z,55.90
2023-03-30T06:59:51.840Z,57.90
2023-03-30T07:05:07.989Z,58.80
2023-03-30T07:10:24.574Z,52.10
2023-03-30T07:15:27.493Z,45.90
2023-03-30T07:20:30.077Z,50.40
2023-03-30T07:25:46.502Z,46.20
2023-03-30T14:54:33.420Z,45.00
2023-03-30T14:59:45.016Z,47.80
2023-03-30T15:04:48.179Z,46.40
2023-03-30T15:10:00.500Z,46.80
2023-03-30T15:15:06.261Z,46.10
2023-03-30T15:20:12.558Z,45.60
2023-03-30T15:25:18.604Z,45.80
2023-03-30T15:30:44.085Z,45.90
2023-03-30T15:35:49.346Z,46.10
2023-03-30T15:40:51.663Z,46.20
2023-03-30T15:46:00.497Z,46.70
2023-03-30T15:51:09.518Z,46.50
2023-03-30T15:56:18.441Z,45.90
2023-03-30T16:01:20.765Z,46.00
2023-03-30T16:06:23.344Z,46.30
2023-03-30T16:11:26.581Z,45.90
2023-03-30T16:16:28.879Z,46.60
2023-03-30T16:21:31.172Z,46.50
2023-03-30T16:26:33.496Z,46.50
2023-03-30T16:31:35.825Z,46.60
2023-03-30T16:36:38.144Z,47.10
2023-03-30T16:41:41.104Z,46.20
2023-03-30T16:46:43.465Z,46.90
2023-03-30T16:51:45.811Z,46.50
2023-03-30T17:34:22.991Z,47.80
2023-03-30T17:39:25.945Z,49.40
2023-03-30T17:44:28.320Z,48.50
2023-03-30T17:49:30.590Z,48.90
2023-03-30T17:54:33.364Z,47.90
2023-03-30T17:59:35.602Z,47.80
2023-03-30T18:04:38.350Z,47.90
2023-03-30T18:09:40.755Z,47.90
2023-03-30T18:14:42.968Z,48.20
2023-03-30T18:19:45.520Z,48.10
2023-03-30T18:24:50.835Z,48.00
2023-03-30T18:29:53.420Z,47.90
2023-03-30T18:34:55.901Z,47.90
2023-03-30T18:39:58.158Z,47.80
2023-03-30T18:45:00.502Z,47.60
2023-03-30T18:50:02.788Z,47.50
2023-03-30T18:55:05.808Z,47.70
2023-03-30T19:00:19.555Z,47.70
2023-03-30T19:05:23.280Z,47.50
2023-03-30T19:10:28.116Z,47.60
2023-03-30T19:15:33.661Z,47.60
2023-03-30T19:20:39.785Z,47.50
2023-03-30T19:25:43.809Z,47.50
2023-03-30T19:30:46.738Z,47.40
2023-03-30T19:35:49.123Z,47.30
2023-03-30T19:40:51.466Z,47.40
2023-03-30T19:45:54.076Z,47.30
2023-03-30T19:50:56.310Z,47.30
2023-03-30T19:55:58.618Z,47.20
2023-03-30T20:01:04.208Z,47.40
2023-03-30T20:06:11.777Z,47.30
2023-03-30T20:11:14.136Z,47.40
2023-03-30T20:16:21.303Z,47.50
2023-03-30T20:21:26.332Z,47.70
2023-03-30T20:26:29.348Z,47.30
2023-03-30T20:31:31.838Z,47.60
2023-03-30T20:36:34.148Z,47.60
2023-03-30T20:41:39.658Z,47.30
2023-03-30T20:46:43.481Z,47.00
2023-03-30T20:51:46.482Z,46.80
2023-03-30T20:56:48.871Z,46.80
2023-03-30T21:01:52.089Z,46.50
2023-03-30T21:06:54.484Z,46.30
2023-03-30T21:11:56.773Z,46.30
2023-03-30T21:16:59.157Z,46.00
2023-03-30T21:22:01.654Z,45.90
2023-03-30T21:27:03.987Z,45.90
2023-03-30T21:32:06.600Z,45.90
2023-03-30T21:37:08.997Z,46.00
2023-03-30T21:42:11.344Z,46.10
2023-03-30T21:47:16.600Z,46.30
2023-03-30T21:52:18.920Z,46.20
2023-03-30T21:57:21.215Z,46.50
2023-03-30T22:02:23.836Z,46.70
2023-03-30T22:07:26.255Z,46.90
2023-03-30T22:12:28.581Z,46.80
2023-03-30T22:17:35.234Z,46.80
2023-03-30T22:22:38.431Z,47.10
2023-03-30T22:27:40.675Z,47.00
2023-03-30T22:32:43.071Z,47.20
2023-03-30T22:37:45.702Z,47.40
2023-03-30T22:42:47.940Z,47.30
2023-03-30T22:47:52.038Z,47.40
2023-03-30T22:52:55.293Z,47.50
2023-03-30T22:57:57.836Z,47.50
2023-03-30T23:03:00.565Z,47.40
2023-03-30T23:08:03.243Z,47.40
2023-03-30T23:13:05.501Z,47.40
2023-03-30T23:18:07.910Z,47.50
2023-03-30T23:23:10.681Z,47.30
2023-03-30T23:28:12.866Z,47.30
2023-03-30T23:33:15.364Z,47.10
2023-03-30T23:38:17.960Z,47.20
2023-03-30T23:43:20.441Z,47.20
2023-03-30T23:48:22.688Z,47.10
2023-03-30T23:53:26.750Z,47.00
2023-03-30T23:58:29.132Z,47.00
